createdAt,value
2023-04-07T00:00:33.981Z,71.04
2023-04-07T00:05:36.154Z,71.12
2023-04-07T00:10:38.316Z,71.86
2023-04-07T00:15:40.544Z,71.09
2023-04-07T00:20:42.699Z,71.04
2023-04-07T00:25:44.846Z,71.14
2023-04-07T00:30:47.165Z,70.75
2023-04-07T00:35:49.437Z,70.52
2023-04-07T00:40:58.203Z,70.81
2023-04-07T00:46:00.610Z,70.65
2023-04-07T00:51:03.819Z,70.00
2023-04-07T00:56:06.498Z,69.81
2023-04-07T01:01:31.085Z,69.11
2023-04-07T01:06:38.835Z,68.90
2023-04-07T01:12:10.176Z,68.52
2023-04-07T01:17:15.469Z,69.12
2023-04-07T01:22:26.672Z,69.87
2023-04-07T01:28:02.668Z,69.43
2023-04-07T01:33:07.167Z,68.95
2023-04-07T01:38:10.906Z,68.46
2023-04-07T01:43:14.366Z,68.27
2023-04-07T01:48:17.830Z,68.13
2023-04-07T01:53:20.809Z,68.58
2023-04-07T01:58:22.973Z,68.65
2023-04-07T02:03:32.117Z,68.37
2023-04-07T02:08:39.349Z,68.20
2023-04-07T02:13:43.902Z,68.86
2023-04-07T02:18:47.020Z,69.31
2023-04-07T02:23:49.170Z,69.91
2023-04-07T02:28:51.311Z,70.00
2023-04-07T02:33:53.624Z,69.60
2023-04-07T02:38:56.192Z,69.42
2023-04-07T02:43:58.534Z,69.37
2023-04-07T02:49:00.885Z,68.43
2023-04-07T02:54:03.101Z,68.32
2023-04-07T02:59:05.326Z,68.32
2023-04-07T03:04:07.761Z,68.69
2023-04-07T03:09:10.060Z,68.31
2023-04-07T03:14:13.480Z,68.62
2023-04-07T03:19:16.511Z,69.35
2023-04-07T03:24:18.713Z,69.09
2023-04-07T03:29:20.950Z,69.14
2023-04-07T03:34:23.169Z,69.24
2023-04-07T03:39:25.758Z,69.33
2023-04-07T03:44:27.894Z,69.64
2023-04-07T03:49:31.500Z,69.32
2023-04-07T03:54:35.513Z,68.86
2023-04-07T03:59:37.755Z,69.32
2023-04-07T04:04:40.004Z,69.64
2023-04-07T04:09:42.493Z,69.43
2023-04-07T04:14:44.638Z,69.67
2023-04-07T04:19:46.813Z,69.76
2023-04-07T04:24:49.734Z,69.36
2023-04-07T04:29:52.421Z,69.51
2023-04-07T04:34:54.564Z,69.90
2023-04-07T04:39:56.913Z,69.49
2023-04-07T04:44:59.027Z,69.37
2023-04-07T04:50:01.496Z,69.22
2023-04-07T04:55:03.845Z,69.17
2023-04-07T05:00:08.044Z,69.16
2023-04-07T05:05:10.625Z,69.46
2023-04-07T05:10:12.995Z,68.60
2023-04-07T05:15:15.721Z,68.42
2023-04-07T05:20:18.054Z,68.06
2023-04-07T05:25:20.206Z,67.46
2023-04-07T05:30:22.356Z,66.60
2023-04-07T05:35:24.621Z,65.54
2023-04-07T05:40:26.824Z,64.95
2023-04-07T05:45:29.011Z,65.16
2023-04-07T05:50:31.355Z,65.42
2023-04-07T05:55:33.532Z,64.97
2023-04-07T06:00:35.782Z,65.15
2023-04-07T06:05:38.032Z,64.96
2023-04-07T06:10:41.893Z,64.44
2023-04-07T06:15:44.086Z,64.32
2023-04-07T06:20:46.301Z,64.20
2023-04-07T06:25:52.036Z,64.37
2023-04-07T06:30:54.246Z,64.16
2023-04-07T06:35:56.570Z,64.99
2023-04-07T06:40:58.752Z,66.94
2023-04-07T06:46:01.171Z,69.01
2023-04-07T06:51:03.499Z,68.36
2023-04-07T06:56:11.578Z,69.19
2023-04-07T07:01:13.827Z,69.66
2023-04-07T07:06:16.106Z,69.76
2023-04-07T07:11:18.303Z,69.49
2023-04-07T07:16:20.643Z,69.47
2023-04-07T07:21:23.261Z,69.36
2023-04-07T07:26:26.367Z,69.32
2023-04-07T07:31:28.762Z,68.14
2023-04-07T07:36:32.384Z,69.58
2023-04-07T07:41:34.554Z,68.71
2023-04-07T07:46:36.750Z,69.54
2023-04-07T07:51:38.976Z,68.42
2023-04-07T07:56:43.427Z,68.38
2023-04-07T08:01:48.146Z,66.79
2023-04-07T08:06:53.471Z,65.22
2023-04-07T08:11:57.632Z,65.85
2023-04-07T08:16:59.868Z,64.33
2023-04-07T08:22:02.404Z,63.70
2023-04-07T08:27:04.748Z,63.80
2023-04-07T08:32:06.916Z,64.83
2023-04-07T08:37:09.684Z,64.47
2023-04-07T08:42:14.337Z,62.80
2023-04-07T08:47:30.112Z,64.14
2023-04-07T08:52:48.897Z,64.83
2023-04-07T08:57:52.357Z,64.45
2023-04-07T09:02:55.186Z,63.78
2023-04-07T09:07:57.417Z,63.72
2023-04-07T09:13:00.160Z,61.77
2023-04-07T09:18:02.758Z,61.60
2023-04-07T09:23:04.934Z,59.92
2023-04-07T09:28:07.065Z,58.70
2023-04-07T09:33:16.554Z,59.11
2023-04-07T09:38:18.836Z,58.69
2023-04-07T09:43:21.039Z,59.94
2023-04-07T09:48:23.512Z,58.89
2023-04-07T09:53:50.424Z,57.79
2023-04-07T09:58:53.328Z,58.58
2023-04-07T10:03:56.558Z,56.74
2023-04-07T10:08:59.219Z,54.62
2023-04-07T10:14:01.478Z,54.32
2023-04-07T10:19:06.253Z,54.65
2023-04-07T10:24:24.553Z,53.92
2023-04-07T10:29:29.636Z,55.13
2023-04-07T10:34:50.262Z,53.57
2023-04-07T10:40:21.879Z,50.47
2023-04-07T10:45:46.643Z,47.70
2023-04-07T10:51:08.128Z,48.78
2023-04-07T10:56:11.213Z,49.12
2023-04-07T11:01:13.449Z,50.63
2023-04-07T11:06:16.312Z,50.74
2023-04-07T11:11:39.920Z,50.01
2023-04-07T11:16:43.579Z,49.27
2023-04-07T11:21:46.334Z,49.63
2023-04-07T11:26:50.475Z,50.30
2023-04-07T11:31:53.026Z,52.12
2023-04-07T11:36:59.570Z,53.12
2023-04-07T11:42:01.900Z,52.02
2023-04-07T11:47:05.287Z,52.29
2023-04-07T11:52:07.663Z,53.19
2023-04-07T11:57:13.299Z,54.93
2023-04-07T12:02:34.471Z,55.36
2023-04-07T12:07:52.515Z,55.37
2023-04-07T12:12:55.256Z,55.75
2023-04-07T12:17:58.266Z,56.13
2023-04-07T12:23:00.636Z,56.20
2023-04-07T12:28:02.802Z,55.88
2023-04-07T12:33:05.856Z,57.42
2023-04-07T12:38:08.628Z,57.74
2023-04-07T12:43:10.952Z,57.46
2023-04-07T12:48:13.654Z,56.79
2023-04-07T12:53:16.043Z,56.87
2023-04-07T12:58:19.176Z,57.02
2023-04-07T13:03:21.570Z,57.10
2023-04-07T13:08:23.865Z,57.58
2023-04-07T13:13:26.111Z,57.40
2023-04-07T13:18:28.315Z,57.48
2023-04-07T13:23:41.703Z,57.37
2023-04-07T13:28:46.196Z,57.37
2023-04-07T13:33:48.670Z,57.61
2023-04-07T13:38:51.072Z,57.96
2023-04-07T13:43:53.259Z,57.33
2023-04-07T13:48:56.311Z,57.88
2023-04-07T13:53:58.682Z,57.95
2023-04-07T13:59:01.051Z,58.66
2023-04-07T14:04:03.311Z,57.94
2023-04-07T14:09:06.563Z,58.78
2023-04-07T14:14:08.782Z,58.86
2023-04-07T14:19:11.081Z,58.74
2023-04-07T14:24:13.287Z,58.50
2023-04-07T14:29:15.572Z,59.29
2023-04-07T14:34:18.189Z,59.06
2023-04-07T14:39:22.578Z,58.91
2023-04-07T14:44:24.842Z,59.19
2023-04-07T14:49:28.612Z,59.34
2023-04-07T14:54:30.930Z,59.34
2023-04-07T14:59:33.271Z,59.52
2023-04-07T15:04:35.664Z,58.87
2023-04-07T15:09:37.914Z,59.64
2023-04-07T15:14:40.602Z,59.23
2023-04-07T15:19:42.892Z,60.04
2023-04-07T15:24:45.064Z,60.23
2023-04-07T15:29:47.610Z,60.52
2023-04-07T15:34:50.131Z,61.01
2023-04-07T15:39:52.457Z,60.85
2023-04-07T15:44:56.338Z,61.17
2023-04-07T15:49:58.521Z,62.33
2023-04-07T15:55:00.682Z,62.23
2023-04-07T16:00:03.439Z,62.75
2023-04-07T16:05:06.063Z,63.45
2023-04-07T16:10:08.984Z,62.80
2023-04-07T16:15:11.630Z,63.36
2023-04-07T16:20:17.792Z,63.36
2023-04-07T16:25:20.065Z,63.71
2023-04-07T16:30:27.907Z,64.46
2023-04-07T16:35:31.938Z,65.07
2023-04-07T16:40:34.509Z,65.80
2023-04-07T16:45:36.708Z,66.13
2023-04-07T16:50:42.832Z,66.40
2023-04-07T16:55:45.010Z,66.53
2023-04-07T17:00:47.196Z,66.69
2023-04-07T17:05:50.531Z,66.95
2023-04-07T17:10:52.721Z,67.51
2023-04-07T17:15:55.009Z,67.58
2023-04-07T17:20:57.761Z,67.98
2023-04-07T17:25:59.988Z,67.94
2023-04-07T17:31:03.004Z,68.79
2023-04-07T17:36:05.437Z,69.34
2023-04-07T17:41:07.654Z,70.32
2023-04-07T17:46:09.850Z,70.79
2023-04-07T17:51:14.063Z,71.23
2023-04-07T17:56:16.290Z,71.32
2023-04-07T18:01:18.533Z,71.30
2023-04-07T18:06:21.007Z,71.58
2023-04-07T18:11:23.158Z,72.30
2023-04-07T18:16:25.427Z,72.99
2023-04-07T18:21:29.495Z,73.24
2023-04-07T18:26:31.969Z,74.12
2023-04-07T18:31:34.198Z,74.13
2023-04-07T18:36:37.327Z,74.75
2023-04-07T18:41:44.740Z,75.30
2023-04-07T18:46:47.048Z,74.26
2023-04-07T18:51:49.288Z,74.74
2023-04-07T18:56:51.609Z,74.63
2023-04-07T19:01:56.558Z,74.73
2023-04-07T19:06:58.998Z,74.95
2023-04-07T19:12:01.178Z,76.60
2023-04-07T19:17:03.584Z,77.70
2023-04-07T19:22:05.888Z,77.57
2023-04-07T19:27:08.114Z,78.14
2023-04-07T19:32:11.200Z,78.51
2023-04-07T19:37:13.394Z,78.49
2023-04-07T19:42:16.139Z,78.27
2023-04-07T19:47:18.562Z,78.30
2023-04-07T19:52:20.774Z,78.21
2023-04-07T19:57:23.007Z,77.89
2023-04-07T20:02:26.252Z,77.71
2023-04-07T20:07:28.465Z,78.01
2023-04-07T20:12:30.808Z,77.94
2023-04-07T20:17:33.026Z,78.58
2023-04-07T20:22:35.600Z,79.80
2023-04-07T20:27:39.168Z,81.55
2023-04-07T20:32:41.494Z,81.48
2023-04-07T20:37:44.640Z,82.56
2023-04-07T20:42:46.852Z,82.47
2023-04-07T20:47:49.507Z,83.28
2023-04-07T20:52:52.700Z,83.60
2023-04-07T20:57:54.977Z,82.97
2023-04-07T21:02:57.427Z,82.96
2023-04-07T21:07:59.862Z,83.10
2023-04-07T21:13:03.454Z,84.32
2023-04-07T21:18:05.971Z,84.72
2023-04-07T21:23:08.901Z,84.42
2023-04-07T21:28:12.575Z,84.23
2023-04-07T21:33:16.175Z,83.64
2023-04-07T21:38:18.890Z,83.87
2023-04-07T21:43:22.217Z,83.49
2023-04-07T21:48:24.626Z,83.47
2023-04-07T21:53:27.415Z,83.94
2023-04-07T21:58:29.771Z,83.62
2023-04-07T22:03:32.205Z,83.52
2023-04-07T22:08:34.534Z,83.08
2023-04-07T22:13:36.720Z,83.68
2023-04-07T22:18:38.909Z,83.95
2023-04-07T22:23:41.446Z,83.97
2023-04-07T22:28:43.627Z,83.69
2023-04-07T22:33:45.967Z,83.30
2023-04-07T22:38:48.449Z,83.56
2023-04-07T22:43:50.850Z,83.97
2023-04-07T22:48:53.055Z,83.81
2023-04-07T22:53:55.205Z,83.07
2023-04-07T22:59:05.256Z,82.71
2023-04-07T23:04:07.775Z,84.39
2023-04-07T23:09:10.478Z,84.30
2023-04-07T23:14:13.076Z,84.08
2023-04-07T23:19:15.901Z,83.91
2023-04-07T23:24:18.160Z,83.24
2023-04-07T23:29:20.368Z,82.49
2023-04-07T23:34:22.723Z,82.75
2023-04-07T23:39:25.467Z,82.84
2023-04-07T23:44:27.627Z,83.55
2023-04-07T23:49:29.805Z,83.94
2023-04-07T23:54:31.932Z,82.72
2023-04-07T23:59:34.066Z,82.30
